sensor_id;sensor_type;location;lat;lon;timestamp;temperature;humidity
11474;DHT22;5793;52.238;13.438;2023-04-24T00:00:46;8.70;99.90
11474;DHT22;5793;52.238;13.438;2023-04-24T00:03:14;8.70;99.90
11474;DHT22;5793;52.238;13.438;2023-04-24T00:05:42;8.70;99.90
11474;DHT22;5793;52.238;13.438;2023-04-24T00:08:11;8.70;99.90
11474;DHT22;5793;52.238;13.438;2023-04-24T00:10:39;8.60;99.90
11474;DHT22;5793;52.238;13.438;2023-04-24T00:13:07;8.50;99.90
11474;DHT22;5793;52.238;13.438;2023-04-24T00:15:34;8.50;99.90
11474;DHT22;5793;52.238;13.438;2023-04-24T00:18:02;8.50;99.90
11474;DHT22;5793;52.238;13.438;2023-04-24T00:20:30;8.50;99.90
11474;DHT22;5793;52.238;13.438;2023-04-24T00:22:59;8.40;99.90
11474;DHT22;5793;52.238;13.438;2023-04-24T00:25:28;8.40;99.90
11474;DHT22;5793;52.238;13.438;2023-04-24T00:27:56;8.30;99.90
11474;DHT22;5793;52.238;13.438;2023-04-24T00:30:23;8.30;99.90
11474;DHT22;5793;52.238;13.438;2023-04-24T00:32:51;8.30;99.90
11474;DHT22;5793;52.238;13.438;2023-04-24T00:35:19;8.30;99.90
11474;DHT22;5793;52.238;13.438;2023-04-24T00:37:47;8.30;99.90
11474;DHT22;5793;52.238;13.438;2023-04-24T00:40:15;8.30;99.90
11474;DHT22;5793;52.238;13.438;2023-04-24T00:42:44;8.20;99.90
11474;DHT22;5793;52.238;13.438;2023-04-24T00:45:12;8.20;99.90
11474;DHT22;5793;52.238;13.438;2023-04-24T00:47:41;8.20;99.90
11474;DHT22;5793;52.238;13.438;2023-04-24T00:50:10;8.20;99.90
11474;DHT22;5793;52.238;13.438;2023-04-24T00:52:37;8.20;99.90
11474;DHT22;5793;52.238;13.438;2023-04-24T00:55:08;8.30;99.90
11474;DHT22;5793;52.238;13.438;2023-04-24T00:57:36;8.40;99.90
11474;DHT22;5793;52.238;13.438;2023-04-24T01:00:07;8.50;99.90
11474;DHT22;5793;52.238;13.438;2023-04-24T01:02:39;8.50;99.90
11474;DHT22;5793;52.238;13.438;2023-04-24T01:05:11;8.60;99.90
11474;DHT22;5793;52.238;13.438;2023-04-24T01:07:41;8.70;99.90
11474;DHT22;5793;52.238;13.438;2023-04-24T01:10:13;8.80;99.90
11474;DHT22;5793;52.238;13.438;2023-04-24T01:12:41;8.80;99.90
11474;DHT22;5793;52.238;13.438;2023-04-24T01:15:11;8.80;99.90
11474;DHT22;5793;52.238;13.438;2023-04-24T01:17:38;8.90;99.90
11474;DHT22;5793;52.238;13.438;2023-04-24T01:20:07;8.80;99.90
11474;DHT22;5793;52.238;13.438;2023-04-24T01:22:36;8.80;99.90
11474;DHT22;5793;52.238;13.438;2023-04-24T01:25:05;8.80;99.90
11474;DHT22;5793;52.238;13.438;2023-04-24T01:27:33;8.80;99.90
11474;DHT22;5793;52.238;13.438;2023-04-24T01:30:01;8.70;99.90
11474;DHT22;5793;52.238;13.438;2023-04-24T01:32:29;8.60;99.90
11474;DHT22;5793;52.238;13.438;2023-04-24T01:34:58;8.60;99.90
11474;DHT22;5793;52.238;13.438;2023-04-24T01:37:26;8.60;99.90
11474;DHT22;5793;52.238;13.438;2023-04-24T01:39:55;8.60;99.90
11474;DHT22;5793;52.238;13.438;2023-04-24T01:42:23;8.60;99.90
11474;DHT22;5793;52.238;13.438;2023-04-24T01:44:51;8.60;99.90
11474;DHT22;5793;52.238;13.438;2023-04-24T01:47:20;8.60;99.90
11474;DHT22;5793;52.238;13.438;2023-04-24T01:49:48;8.70;99.90
11474;DHT22;5793;52.238;13.438;2023-04-24T01:52:17;8.70;99.90
11474;DHT22;5793;52.238;13.438;2023-04-24T01:54:45;8.80;99.90
11474;DHT22;5793;52.238;13.438;2023-04-24T01:57:16;8.80;99.90
11474;DHT22;5793;52.238;13.438;2023-04-24T01:59:43;9.00;99.90
11474;DHT22;5793;52.238;13.438;2023-04-24T02:02:11;9.10;99.90
11474;DHT22;5793;52.238;13.438;2023-04-24T02:04:39;9.30;99.90
11474;DHT22;5793;52.238;13.438;2023-04-24T02:07:07;9.50;99.90
11474;DHT22;5793;52.238;13.438;2023-04-24T02:09:35;9.70;99.90
11474;DHT22;5793;52.238;13.438;2023-04-24T02:12:03;9.90;99.90
11474;DHT22;5793;52.238;13.438;2023-04-24T02:14:32;10.10;99.90
11474;DHT22;5793;52.238;13.438;2023-04-24T02:17:00;10.30;99.90
11474;DHT22;5793;52.238;13.438;2023-04-24T02:19:28;10.30;99.90
11474;DHT22;5793;52.238;13.438;2023-04-24T02:21:55;10.40;99.90
11474;DHT22;5793;52.238;13.438;2023-04-24T02:24:23;10.40;99.90
11474;DHT22;5793;52.238;13.438;2023-04-24T02:26:51;10.50;99.90
11474;DHT22;5793;52.238;13.438;2023-04-24T02:29:19;10.60;99.90
11474;DHT22;5793;52.238;13.438;2023-04-24T02:31:48;10.60;99.90
11474;DHT22;5793;52.238;13.438;2023-04-24T02:34:16;10.70;99.90
11474;DHT22;5793;52.238;13.438;2023-04-24T02:36:43;10.60;99.90
11474;DHT22;5793;52.238;13.438;2023-04-24T02:39:11;10.70;99.90
11474;DHT22;5793;52.238;13.438;2023-04-24T02:41:40;10.70;99.90
11474;DHT22;5793;52.238;13.438;2023-04-24T02:44:08;10.70;99.90
11474;DHT22;5793;52.238;13.438;2023-04-24T02:46:36;10.70;99.90
11474;DHT22;5793;52.238;13.438;2023-04-24T02:49:05;10.70;99.90
11474;DHT22;5793;52.238;13.438;2023-04-24T02:51:33;10.70;99.90
11474;DHT22;5793;52.238;13.438;2023-04-24T02:54:01;10.70;99.90
11474;DHT22;5793;52.238;13.438;2023-04-24T02:56:29;10.70;99.90
11474;DHT22;5793;52.238;13.438;2023-04-24T02:58:56;10.60;99.90
11474;DHT22;5793;52.238;13.438;2023-04-24T03:01:24;10.70;99.90
11474;DHT22;5793;52.238;13.438;2023-04-24T03:03:52;10.70;99.90
11474;DHT22;5793;52.238;13.438;2023-04-24T03:06:21;10.80;99.90
11474;DHT22;5793;52.238;13.438;2023-04-24T03:08:49;10.90;99.90
11474;DHT22;5793;52.238;13.438;2023-04-24T03:11:17;10.90;99.90
11474;DHT22;5793;52.238;13.438;2023-04-24T03:13:45;11.10;99.90
11474;DHT22;5793;52.238;13.438;2023-04-24T03:16:12;11.20;99.90
11474;DHT22;5793;52.238;13.438;2023-04-24T03:18:40;11.20;99.90
11474;DHT22;5793;52.238;13.438;2023-04-24T03:21:08;11.20;99.90
11474;DHT22;5793;52.238;13.438;2023-04-24T03:23:37;11.20;99.90
11474;DHT22;5793;52.238;13.438;2023-04-24T03:26:05;11.10;99.90
11474;DHT22;5793;52.238;13.438;2023-04-24T03:28:33;11.00;99.90
11474;DHT22;5793;52.238;13.438;2023-04-24T03:31:00;10.90;99.90
11474;DHT22;5793;52.238;13.438;2023-04-24T03:33:28;10.90;99.90
11474;DHT22;5793;52.238;13.438;2023-04-24T03:35:56;10.80;99.90
11474;DHT22;5793;52.238;13.438;2023-04-24T03:38:24;10.70;99.90
11474;DHT22;5793;52.238;13.438;2023-04-24T03:40:53;10.70;99.90
11474;DHT22;5793;52.238;13.438;2023-04-24T03:43:21;10.80;99.90
11474;DHT22;5793;52.238;13.438;2023-04-24T03:45:49;10.70;99.90
11474;DHT22;5793;52.238;13.438;2023-04-24T03:48:16;10.70;99.90
11474;DHT22;5793;52.238;13.438;2023-04-24T03:50:44;10.80;99.90
11474;DHT22;5793;52.238;13.438;2023-04-24T03:53:12;10.80;99.90
11474;DHT22;5793;52.238;13.438;2023-04-24T03:55:40;10.90;99.90
11474;DHT22;5793;52.238;13.438;2023-04-24T03:58:09;11.00;99.90
11474;DHT22;5793;52.238;13.438;2023-04-24T04:00:37;11.10;99.90
11474;DHT22;5793;52.238;13.438;2023-04-24T04:03:06;11.20;99.90
11474;DHT22;5793;52.238;13.438;2023-04-24T04:05:35;11.20;99.90
11474;DHT22;5793;52.238;13.438;2023-04-24T04:08:02;11.30;99.90
11474;DHT22;5793;52.238;13.438;2023-04-24T04:10:30;11.30;99.90
11474;DHT22;5793;52.238;13.438;2023-04-24T04:12:58;11.40;99.90
11474;DHT22;5793;52.238;13.438;2023-04-24T04:15:27;11.50;99.90
11474;DHT22;5793;52.238;13.438;2023-04-24T04:17:55;11.50;99.90
11474;DHT22;5793;52.238;13.438;2023-04-24T04:20:23;11.60;99.90
11474;DHT22;5793;52.238;13.438;2023-04-24T04:22:51;11.60;99.90
11474;DHT22;5793;52.238;13.438;2023-04-24T04:25:19;11.60;99.90
11474;DHT22;5793;52.238;13.438;2023-04-24T04:27:47;11.70;99.90
11474;DHT22;5793;52.238;13.438;2023-04-24T04:30:15;11.70;99.90
11474;DHT22;5793;52.238;13.438;2023-04-24T04:32:44;11.80;99.90
11474;DHT22;5793;52.238;13.438;2023-04-24T04:35:12;11.90;99.90
11474;DHT22;5793;52.238;13.438;2023-04-24T04:37:39;11.90;99.90
11474;DHT22;5793;52.238;13.438;2023-04-24T04:40:08;11.90;99.90
11474;DHT22;5793;52.238;13.438;2023-04-24T04:42:38;11.90;99.90
11474;DHT22;5793;52.238;13.438;2023-04-24T04:45:07;11.90;99.90
11474;DHT22;5793;52.238;13.438;2023-04-24T04:47:38;11.90;99.90
11474;DHT22;5793;52.238;13.438;2023-04-24T04:50:08;11.80;99.90
11474;DHT22;5793;52.238;13.438;2023-04-24T04:52:37;11.80;99.90
11474;DHT22;5793;52.238;13.438;2023-04-24T04:55:05;11.70;99.90
11474;DHT22;5793;52.238;13.438;2023-04-24T04:57:34;11.70;99.90
11474;DHT22;5793;52.238;13.438;2023-04-24T05:00:02;11.70;99.90
11474;DHT22;5793;52.238;13.438;2023-04-24T05:02:31;11.70;99.90
11474;DHT22;5793;52.238;13.438;2023-04-24T05:04:59;11.60;99.90
11474;DHT22;5793;52.238;13.438;2023-04-24T05:07:28;11.60;99.90
11474;DHT22;5793;52.238;13.438;2023-04-24T05:09:56;11.60;99.90
11474;DHT22;5793;52.238;13.438;2023-04-24T05:12:24;11.70;99.90
11474;DHT22;5793;52.238;13.438;2023-04-24T05:14:51;11.60;99.90
11474;DHT22;5793;52.238;13.438;2023-04-24T05:17:19;11.70;99.90
11474;DHT22;5793;52.238;13.438;2023-04-24T05:19:47;11.70;99.90
11474;DHT22;5793;52.238;13.438;2023-04-24T05:22:15;11.80;99.90
11474;DHT22;5793;52.238;13.438;2023-04-24T05:24:46;11.80;99.90
11474;DHT22;5793;52.238;13.438;2023-04-24T05:27:14;12.00;99.90
11474;DHT22;5793;52.238;13.438;2023-04-24T05:29:42;12.00;99.90
11474;DHT22;5793;52.238;13.438;2023-04-24T05:32:10;12.00;99.90
11474;DHT22;5793;52.238;13.438;2023-04-24T05:34:38;12.00;99.90
11474;DHT22;5793;52.238;13.438;2023-04-24T05:37:06;12.00;99.90
11474;DHT22;5793;52.238;13.438;2023-04-24T05:39:36;12.20;99.90
11474;DHT22;5793;52.238;13.438;2023-04-24T05:42:05;12.30;99.90
11474;DHT22;5793;52.238;13.438;2023-04-24T05:44:33;12.40;99.90
11474;DHT22;5793;52.238;13.438;2023-04-24T05:47:01;12.40;99.90
11474;DHT22;5793;52.238;13.438;2023-04-24T05:49:29;12.30;99.90
11474;DHT22;5793;52.238;13.438;2023-04-24T05:51:57;12.30;99.90
11474;DHT22;5793;52.238;13.438;2023-04-24T05:54:24;12.20;99.90
11474;DHT22;5793;52.238;13.438;2023-04-24T05:56:52;12.20;99.90
11474;DHT22;5793;52.238;13.438;2023-04-24T05:59:22;12.20;99.90
11474;DHT22;5793;52.238;13.438;2023-04-24T06:01:50;12.30;99.90
11474;DHT22;5793;52.238;13.438;2023-04-24T06:04:18;12.40;99.90
11474;DHT22;5793;52.238;13.438;2023-04-24T06:06:46;12.50;99.90
11474;DHT22;5793;52.238;13.438;2023-04-24T06:09:17;12.50;99.90
11474;DHT22;5793;52.238;13.438;2023-04-24T06:11:45;12.60;99.90
11474;DHT22;5793;52.238;13.438;2023-04-24T06:14:13;12.50;99.90
11474;DHT22;5793;52.238;13.438;2023-04-24T06:16:42;12.40;99.90
11474;DHT22;5793;52.238;13.438;2023-04-24T06:19:10;12.40;99.90
11474;DHT22;5793;52.238;13.438;2023-04-24T06:21:38;12.40;99.90
11474;DHT22;5793;52.238;13.438;2023-04-24T06:24:06;12.50;99.90
11474;DHT22;5793;52.238;13.438;2023-04-24T06:26:34;12.70;99.90
11474;DHT22;5793;52.238;13.438;2023-04-24T06:29:01;13.00;99.90
11474;DHT22;5793;52.238;13.438;2023-04-24T06:31:29;13.30;99.90
11474;DHT22;5793;52.238;13.438;2023-04-24T06:34:03;13.60;99.90
11474;DHT22;5793;52.238;13.438;2023-04-24T06:36:31;13.80;99.90
11474;DHT22;5793;52.238;13.438;2023-04-24T06:39:01;13.90;99.90
11474;DHT22;5793;52.238;13.438;2023-04-24T06:41:29;14.00;99.90
11474;DHT22;5793;52.238;13.438;2023-04-24T06:43:57;14.10;99.90
11474;DHT22;5793;52.238;13.438;2023-04-24T06:46:24;14.30;99.90
11474;DHT22;5793;52.238;13.438;2023-04-24T06:48:54;14.30;99.90
11474;DHT22;5793;52.238;13.438;2023-04-24T06:51:24;14.60;99.90
11474;DHT22;5793;52.238;13.438;2023-04-24T06:53:52;14.60;99.90
11474;DHT22;5793;52.238;13.438;2023-04-24T06:56:20;14.70;99.90
11474;DHT22;5793;52.238;13.438;2023-04-24T06:58:48;14.70;99.90
11474;DHT22;5793;52.238;13.438;2023-04-24T07:01:16;14.60;99.90
11474;DHT22;5793;52.238;13.438;2023-04-24T07:03:43;14.40;99.90
11474;DHT22;5793;52.238;13.438;2023-04-24T07:06:11;14.50;99.90
11474;DHT22;5793;52.238;13.438;2023-04-24T07:08:41;14.30;99.90
11474;DHT22;5793;52.238;13.438;2023-04-24T07:11:10;14.40;99.90
11474;DHT22;5793;52.238;13.438;2023-04-24T07:13:37;14.40;99.90
11474;DHT22;5793;52.238;13.438;2023-04-24T07:16:08;14.60;99.90
11474;DHT22;5793;52.238;13.438;2023-04-24T07:18:38;14.70;99.90
11474;DHT22;5793;52.238;13.438;2023-04-24T07:21:06;14.80;99.90
11474;DHT22;5793;52.238;13.438;2023-04-24T07:23:34;14.90;99.90
11474;DHT22;5793;52.238;13.438;2023-04-24T07:26:04;15.00;99.90
11474;DHT22;5793;52.238;13.438;2023-04-24T07:28:32;15.00;99.90
11474;DHT22;5793;52.238;13.438;2023-04-24T07:30:59;15.30;99.90
11474;DHT22;5793;52.238;13.438;2023-04-24T07:33:27;15.50;99.90
11474;DHT22;5793;52.238;13.438;2023-04-24T07:35:55;15.60;99.90
11474;DHT22;5793;52.238;13.438;2023-04-24T07:38:23;15.80;99.90
11474;DHT22;5793;52.238;13.438;2023-04-24T07:40:52;15.90;99.90
11474;DHT22;5793;52.238;13.438;2023-04-24T07:43:21;15.90;99.90
11474;DHT22;5793;52.238;13.438;2023-04-24T07:45:50;16.10;99.90
11474;DHT22;5793;52.238;13.438;2023-04-24T07:48:18;16.10;99.90
11474;DHT22;5793;52.238;13.438;2023-04-24T07:50:48;16.20;99.90
11474;DHT22;5793;52.238;13.438;2023-04-24T07:53:15;16.50;99.90
11474;DHT22;5793;52.238;13.438;2023-04-24T07:55:43;16.70;99.90
11474;DHT22;5793;52.238;13.438;2023-04-24T07:58:11;16.60;99.90
11474;DHT22;5793;52.238;13.438;2023-04-24T08:00:40;16.30;99.90
11474;DHT22;5793;52.238;13.438;2023-04-24T08:03:08;16.30;99.90
11474;DHT22;5793;52.238;13.438;2023-04-24T08:05:36;16.30;99.90
11474;DHT22;5793;52.238;13.438;2023-04-24T08:08:06;16.50;99.90
11474;DHT22;5793;52.238;13.438;2023-04-24T08:10:34;16.90;99.90
11474;DHT22;5793;52.238;13.438;2023-04-24T08:13:02;17.50;99.90
11474;DHT22;5793;52.238;13.438;2023-04-24T08:15:30;17.50;99.90
11474;DHT22;5793;52.238;13.438;2023-04-24T08:17:59;17.40;99.90
11474;DHT22;5793;52.238;13.438;2023-04-24T08:20:27;17.70;99.90
11474;DHT22;5793;52.238;13.438;2023-04-24T08:22:55;18.20;99.90
11474;DHT22;5793;52.238;13.438;2023-04-24T08:25:23;18.90;99.90
11474;DHT22;5793;52.238;13.438;2023-04-24T08:27:51;19.20;99.90
11474;DHT22;5793;52.238;13.438;2023-04-24T08:30:19;20.00;99.90
11474;DHT22;5793;52.238;13.438;2023-04-24T08:32:47;21.00;99.90
11474;DHT22;5793;52.238;13.438;2023-04-24T08:35:17;21.30;99.90
11474;DHT22;5793;52.238;13.438;2023-04-24T08:37:45;21.60;99.90
11474;DHT22;5793;52.238;13.438;2023-04-24T08:40:15;23.10;99.90
11474;DHT22;5793;52.238;13.438;2023-04-24T08:42:43;23.10;99.90
11474;DHT22;5793;52.238;13.438;2023-04-24T08:45:12;22.70;99.90
11474;DHT22;5793;52.238;13.438;2023-04-24T08:47:41;21.50;99.90
11474;DHT22;5793;52.238;13.438;2023-04-24T08:50:11;22.00;99.90
11474;DHT22;5793;52.238;13.438;2023-04-24T08:52:42;22.90;99.90
11474;DHT22;5793;52.238;13.438;2023-04-24T08:55:10;23.50;99.40
11474;DHT22;5793;52.238;13.438;2023-04-24T08:57:38;23.40;99.90
11474;DHT22;5793;52.238;13.438;2023-04-24T09:00:07;22.90;99.90
11474;DHT22;5793;52.238;13.438;2023-04-24T09:02:41;22.20;99.90
11474;DHT22;5793;52.238;13.438;2023-04-24T09:05:10;21.10;99.90
11474;DHT22;5793;52.238;13.438;2023-04-24T09:07:40;20.00;99.90
11474;DHT22;5793;52.238;13.438;2023-04-24T09:10:09;18.60;99.90
11474;DHT22;5793;52.238;13.438;2023-04-24T09:12:38;17.60;99.90
11474;DHT22;5793;52.238;13.438;2023-04-24T09:15:07;17.00;99.90
11474;DHT22;5793;52.238;13.438;2023-04-24T09:17:36;16.60;99.90
11474;DHT22;5793;52.238;13.438;2023-04-24T09:20:05;16.20;99.90
11474;DHT22;5793;52.238;13.438;2023-04-24T09:22:33;16.10;99.90
11474;DHT22;5793;52.238;13.438;2023-04-24T09:25:06;16.10;99.90
11474;DHT22;5793;52.238;13.438;2023-04-24T09:27:35;16.10;99.90
11474;DHT22;5793;52.238;13.438;2023-04-24T09:30:04;16.20;99.90
11474;DHT22;5793;52.238;13.438;2023-04-24T09:32:32;16.10;99.90
11474;DHT22;5793;52.238;13.438;2023-04-24T09:35:11;15.90;99.90
11474;DHT22;5793;52.238;13.438;2023-04-24T09:37:42;15.70;99.90
11474;DHT22;5793;52.238;13.438;2023-04-24T09:40:19;15.50;99.90
11474;DHT22;5793;52.238;13.438;2023-04-24T09:42:52;15.60;99.90
11474;DHT22;5793;52.238;13.438;2023-04-24T09:45:20;15.80;99.90
11474;DHT22;5793;52.238;13.438;2023-04-24T09:47:52;15.90;99.90
11474;DHT22;5793;52.238;13.438;2023-04-24T09:50:20;15.90;99.90
11474;DHT22;5793;52.238;13.438;2023-04-24T09:52:57;15.90;99.90
11474;DHT22;5793;52.238;13.438;2023-04-24T09:55:26;16.00;99.90
11474;DHT22;5793;52.238;13.438;2023-04-24T09:57:56;16.00;99.90
11474;DHT22;5793;52.238;13.438;2023-04-24T10:00:26;16.40;99.90
11474;DHT22;5793;52.238;13.438;2023-04-24T10:02:55;17.30;99.90
11474;DHT22;5793;52.238;13.438;2023-04-24T10:05:24;19.00;99.90
11474;DHT22;5793;52.238;13.438;2023-04-24T10:07:56;20.80;99.90
11474;DHT22;5793;52.238;13.438;2023-04-24T10:10:24;22.30;99.90
11474;DHT22;5793;52.238;13.438;2023-04-24T10:12:53;22.60;99.90
11474;DHT22;5793;52.238;13.438;2023-04-24T10:15:22;22.80;99.90
11474;DHT22;5793;52.238;13.438;2023-04-24T10:17:50;23.70;99.90
11474;DHT22;5793;52.238;13.438;2023-04-24T10:20:21;23.20;98.80
11474;DHT22;5793;52.238;13.438;2023-04-24T10:22:50;22.20;99.90
11474;DHT22;5793;52.238;13.438;2023-04-24T10:25:19;22.90;99.90
11474;DHT22;5793;52.238;13.438;2023-04-24T10:27:49;22.90;98.20
11474;DHT22;5793;52.238;13.438;2023-04-24T10:30:19;21.50;99.90
11474;DHT22;5793;52.238;13.438;2023-04-24T10:32:47;20.30;99.90
11474;DHT22;5793;52.238;13.438;2023-04-24T10:35:15;19.40;99.90
11474;DHT22;5793;52.238;13.438;2023-04-24T10:37:48;18.90;99.90
11474;DHT22;5793;52.238;13.438;2023-04-24T10:40:18;18.40;99.90
11474;DHT22;5793;52.238;13.438;2023-04-24T10:42:51;18.00;99.90
11474;DHT22;5793;52.238;13.438;2023-04-24T10:45:25;17.80;99.90
11474;DHT22;5793;52.238;13.438;2023-04-24T10:47:57;18.10;99.90
11474;DHT22;5793;52.238;13.438;2023-04-24T10:50:26;18.90;99.90
11474;DHT22;5793;52.238;13.438;2023-04-24T10:53:05;20.10;99.90
11474;DHT22;5793;52.238;13.438;2023-04-24T10:55:42;21.30;99.90
11474;DHT22;5793;52.238;13.438;2023-04-24T10:58:11;23.20;99.90
11474;DHT22;5793;52.238;13.438;2023-04-24T11:00:41;24.00;95.00
11474;DHT22;5793;52.238;13.438;2023-04-24T11:03:23;24.50;93.00
11474;DHT22;5793;52.238;13.438;2023-04-24T11:05:56;24.50;90.20
11474;DHT22;5793;52.238;13.438;2023-04-24T11:08:26;23.80;90.50
11474;DHT22;5793;52.238;13.438;2023-04-24T11:10:56;22.50;92.10
11474;DHT22;5793;52.238;13.438;2023-04-24T11:13:26;20.50;96.20
11474;DHT22;5793;52.238;13.438;2023-04-24T11:16:20;19.10;99.90
11474;DHT22;5793;52.238;13.438;2023-04-24T11:18:51;18.40;99.90
11474;DHT22;5793;52.238;13.438;2023-04-24T11:21:22;18.10;99.90
11474;DHT22;5793;52.238;13.438;2023-04-24T11:23:50;17.80;99.90
11474;DHT22;5793;52.238;13.438;2023-04-24T11:26:19;18.20;99.90
11474;DHT22;5793;52.238;13.438;2023-04-24T11:28:51;19.30;99.90
11474;DHT22;5793;52.238;13.438;2023-04-24T11:31:36;19.70;99.90
11474;DHT22;5793;52.238;13.438;2023-04-24T11:34:09;19.90;99.90
11474;DHT22;5793;52.238;13.438;2023-04-24T11:36:37;19.50;99.90
11474;DHT22;5793;52.238;13.438;2023-04-24T11:39:05;19.60;99.90
11474;DHT22;5793;52.238;13.438;2023-04-24T11:41:33;19.90;99.90
11474;DHT22;5793;52.238;13.438;2023-04-24T11:44:03;19.80;99.90
11474;DHT22;5793;52.238;13.438;2023-04-24T11:46:31;20.00;99.90
11474;DHT22;5793;52.238;13.438;2023-04-24T11:49:00;20.60;99.90
11474;DHT22;5793;52.238;13.438;2023-04-24T11:51:28;20.70;99.90
11474;DHT22;5793;52.238;13.438;2023-04-24T11:54:09;20.20;99.90
11474;DHT22;5793;52.238;13.438;2023-04-24T11:56:37;19.60;99.90
11474;DHT22;5793;52.238;13.438;2023-04-24T11:59:05;19.50;99.90
11474;DHT22;5793;52.238;13.438;2023-04-24T12:01:43;19.40;99.90
11474;DHT22;5793;52.238;13.438;2023-04-24T12:04:12;19.10;99.90
11474;DHT22;5793;52.238;13.438;2023-04-24T12:06:58;18.80;99.90
11474;DHT22;5793;52.238;13.438;2023-04-24T12:09:26;18.70;99.90
11474;DHT22;5793;52.238;13.438;2023-04-24T12:11:55;18.60;99.90
11474;DHT22;5793;52.238;13.438;2023-04-24T12:14:23;18.90;99.90
11474;DHT22;5793;52.238;13.438;2023-04-24T12:16:51;18.80;99.90
11474;DHT22;5793;52.238;13.438;2023-04-24T12:19:22;18.60;99.90
11474;DHT22;5793;52.238;13.438;2023-04-24T12:22:00;18.40;99.90
11474;DHT22;5793;52.238;13.438;2023-04-24T12:24:28;18.30;99.90
11474;DHT22;5793;52.238;13.438;2023-04-24T12:26:57;18.40;99.90
11474;DHT22;5793;52.238;13.438;2023-04-24T12:29:25;18.50;99.90
11474;DHT22;5793;52.238;13.438;2023-04-24T12:31:54;18.80;99.90
11474;DHT22;5793;52.238;13.438;2023-04-24T12:34:24;19.60;99.90
11474;DHT22;5793;52.238;13.438;2023-04-24T12:36:52;20.20;99.90
11474;DHT22;5793;52.238;13.438;2023-04-24T12:39:20;20.00;99.90
11474;DHT22;5793;52.238;13.438;2023-04-24T12:41:54;19.30;97.50
11474;DHT22;5793;52.238;13.438;2023-04-24T12:44:29;18.60;97.90
11474;DHT22;5793;52.238;13.438;2023-04-24T12:46:58;18.20;97.00
11474;DHT22;5793;52.238;13.438;2023-04-24T12:49:27;18.20;97.20
11474;DHT22;5793;52.238;13.438;2023-04-24T12:51:55;18.30;97.40
11474;DHT22;5793;52.238;13.438;2023-04-24T12:54:23;18.20;96.30
11474;DHT22;5793;52.238;13.438;2023-04-24T12:56:50;18.10;97.50
11474;DHT22;5793;52.238;13.438;2023-04-24T12:59:18;18.40;99.90
11474;DHT22;5793;52.238;13.438;2023-04-24T13:01:46;18.80;97.20
11474;DHT22;5793;52.238;13.438;2023-04-24T13:04:14;18.60;94.10
11474;DHT22;5793;52.238;13.438;2023-04-24T13:06:45;18.80;97.60
11474;DHT22;5793;52.238;13.438;2023-04-24T13:09:12;19.00;96.70
11474;DHT22;5793;52.238;13.438;2023-04-24T13:11:40;18.90;93.10
11474;DHT22;5793;52.238;13.438;2023-04-24T13:14:08;18.70;92.90
11474;DHT22;5793;52.238;13.438;2023-04-24T13:16:36;18.60;94.50
11474;DHT22;5793;52.238;13.438;2023-04-24T13:19:04;18.70;95.30
11474;DHT22;5793;52.238;13.438;2023-04-24T13:21:31;18.60;93.80
11474;DHT22;5793;52.238;13.438;2023-04-24T13:24:00;18.40;93.70
11474;DHT22;5793;52.238;13.438;2023-04-24T13:26:30;18.10;92.40
11474;DHT22;5793;52.238;13.438;2023-04-24T13:28:58;17.80;92.50
11474;DHT22;5793;52.238;13.438;2023-04-24T13:31:26;17.80;94.40
11474;DHT22;5793;52.238;13.438;2023-04-24T13:33:54;17.90;91.80
11474;DHT22;5793;52.238;13.438;2023-04-24T13:36:22;17.90;92.50
11474;DHT22;5793;52.238;13.438;2023-04-24T13:38:49;17.90;94.90
11474;DHT22;5793;52.238;13.438;2023-04-24T13:41:18;17.90;93.50
11474;DHT22;5793;52.238;13.438;2023-04-24T13:43:46;18.10;92.10
11474;DHT22;5793;52.238;13.438;2023-04-24T13:46:14;17.90;90.90
11474;DHT22;5793;52.238;13.438;2023-04-24T13:48:42;17.50;91.90
11474;DHT22;5793;52.238;13.438;2023-04-24T13:51:10;17.30;92.50
11474;DHT22;5793;52.238;13.438;2023-04-24T13:53:38;17.40;93.30
11474;DHT22;5793;52.238;13.438;2023-04-24T13:56:06;17.70;92.30
11474;DHT22;5793;52.238;13.438;2023-04-24T13:58:36;17.60;90.00
11474;DHT22;5793;52.238;13.438;2023-04-24T14:01:04;17.60;91.20
11474;DHT22;5793;52.238;13.438;2023-04-24T14:03:33;17.80;92.00
11474;DHT22;5793;52.238;13.438;2023-04-24T14:06:01;18.20;92.00
11474;DHT22;5793;52.238;13.438;2023-04-24T14:08:29;18.20;91.10
11474;DHT22;5793;52.238;13.438;2023-04-24T14:10:57;17.90;90.30
11474;DHT22;5793;52.238;13.438;2023-04-24T14:13:24;17.60;92.00
11474;DHT22;5793;52.238;13.438;2023-04-24T14:15:54;17.60;89.40
11474;DHT22;5793;52.238;13.438;2023-04-24T14:18:22;17.80;90.10
11474;DHT22;5793;52.238;13.438;2023-04-24T14:20:49;17.80;88.10
11474;DHT22;5793;52.238;13.438;2023-04-24T14:23:17;17.90;93.00
11474;DHT22;5793;52.238;13.438;2023-04-24T14:25:45;17.90;92.00
11474;DHT22;5793;52.238;13.438;2023-04-24T14:28:15;18.10;89.60
11474;DHT22;5793;52.238;13.438;2023-04-24T14:30:43;18.10;88.50
11474;DHT22;5793;52.238;13.438;2023-04-24T14:33:12;18.00;91.20
11474;DHT22;5793;52.238;13.438;2023-04-24T14:35:41;17.90;88.70
11474;DHT22;5793;52.238;13.438;2023-04-24T14:38:09;17.90;91.50
11474;DHT22;5793;52.238;13.438;2023-04-24T14:40:38;17.80;89.90
11474;DHT22;5793;52.238;13.438;2023-04-24T14:43:08;17.90;92.00
11474;DHT22;5793;52.238;13.438;2023-04-24T14:45:37;17.80;90.60
11474;DHT22;5793;52.238;13.438;2023-04-24T14:48:04;17.80;91.10
11474;DHT22;5793;52.238;13.438;2023-04-24T14:50:34;17.70;89.40
11474;DHT22;5793;52.238;13.438;2023-04-24T14:53:02;17.60;90.20
11474;DHT22;5793;52.238;13.438;2023-04-24T14:55:30;17.20;90.40
11474;DHT22;5793;52.238;13.438;2023-04-24T14:57:59;17.10;90.90
11474;DHT22;5793;52.238;13.438;2023-04-24T15:00:28;17.00;91.30
11474;DHT22;5793;52.238;13.438;2023-04-24T15:02:56;16.90;90.20
11474;DHT22;5793;52.238;13.438;2023-04-24T15:05:24;17.10;89.00
11474;DHT22;5793;52.238;13.438;2023-04-24T15:07:54;17.10;90.50
11474;DHT22;5793;52.238;13.438;2023-04-24T15:10:21;17.00;91.40
11474;DHT22;5793;52.238;13.438;2023-04-24T15:12:51;17.00;86.10
11474;DHT22;5793;52.238;13.438;2023-04-24T15:15:19;16.90;89.00
11474;DHT22;5793;52.238;13.438;2023-04-24T15:17:47;16.80;89.60
11474;DHT22;5793;52.238;13.438;2023-04-24T15:20:15;16.60;90.00
11474;DHT22;5793;52.238;13.438;2023-04-24T15:22:44;16.50;90.50
11474;DHT22;5793;52.238;13.438;2023-04-24T15:25:13;16.10;91.10
11474;DHT22;5793;52.238;13.438;2023-04-24T15:27:42;15.90;91.50
11474;DHT22;5793;52.238;13.438;2023-04-24T15:30:10;15.70;92.30
11474;DHT22;5793;52.238;13.438;2023-04-24T15:32:39;15.80;92.20
11474;DHT22;5793;52.238;13.438;2023-04-24T15:35:07;15.90;92.30
11474;DHT22;5793;52.238;13.438;2023-04-24T15:37:36;15.80;92.50
11474;DHT22;5793;52.238;13.438;2023-04-24T15:40:05;15.80;92.60
11474;DHT22;5793;52.238;13.438;2023-04-24T15:42:35;15.90;94.80